sensor_id;sensor_type;location;lat;lon;timestamp;P1;durP1;ratioP1;P2;durP2;ratioP2
8978;SDS011;4524;51.364;5.448;2023-03-19T00:02:06;2.70;;;1.93;;
8978;SDS011;4524;51.364;5.448;2023-03-19T00:04:43;2.63;;;2.17;;
8978;SDS011;4524;51.364;5.448;2023-03-19T00:07:11;2.97;;;1.80;;
8978;SDS011;4524;51.364;5.448;2023-03-19T00:09:40;3.37;;;2.40;;
8978;SDS011;4524;51.364;5.448;2023-03-19T00:12:09;2.67;;;2.30;;
8978;SDS011;4524;51.364;5.448;2023-03-19T00:14:38;2.50;;;2.20;;
8978;SDS011;4524;51.364;5.448;2023-03-19T00:17:06;2.97;;;2.30;;
8978;SDS011;4524;51.364;5.448;2023-03-19T00:19:34;2.67;;;2.20;;
8978;SDS011;4524;51.364;5.448;2023-03-19T00:22:02;3.17;;;2.60;;
8978;SDS011;4524;51.364;5.448;2023-03-19T00:24:30;3.83;;;2.90;;
8978;SDS011;4524;51.364;5.448;2023-03-19T00:26:59;2.60;;;2.40;;
8978;SDS011;4524;51.364;5.448;2023-03-19T00:29:30;2.80;;;2.40;;
8978;SDS011;4524;51.364;5.448;2023-03-19T00:31:58;2.10;;;1.90;;
8978;SDS011;4524;51.364;5.448;2023-03-19T00:34:26;3.17;;;2.50;;
8978;SDS011;4524;51.364;5.448;2023-03-19T00:36:54;3.73;;;2.70;;
8978;SDS011;4524;51.364;5.448;2023-03-19T00:39:22;2.87;;;2.40;;
8978;SDS011;4524;51.364;5.448;2023-03-19T00:41:50;3.70;;;2.40;;
8978;SDS011;4524;51.364;5.448;2023-03-19T00:44:18;3.23;;;2.20;;
8978;SDS011;4524;51.364;5.448;2023-03-19T00:46:48;2.60;;;2.40;;
8978;SDS011;4524;51.364;5.448;2023-03-19T00:49:15;2.97;;;2.37;;
8978;SDS011;4524;51.364;5.448;2023-03-19T00:51:43;3.37;;;2.23;;
8978;SDS011;4524;51.364;5.448;2023-03-19T00:54:12;2.80;;;2.50;;
8978;SDS011;4524;51.364;5.448;2023-03-19T00:56:40;2.87;;;2.53;;
8978;SDS011;4524;51.364;5.448;2023-03-19T00:59:08;3.70;;;2.70;;
8978;SDS011;4524;51.364;5.448;2023-03-19T01:01:36;3.00;;;2.30;;
8978;SDS011;4524;51.364;5.448;2023-03-19T01:04:05;3.93;;;2.70;;
8978;SDS011;4524;51.364;5.448;2023-03-19T01:06:33;2.90;;;2.60;;
8978;SDS011;4524;51.364;5.448;2023-03-19T01:09:02;2.97;;;2.63;;
8978;SDS011;4524;51.364;5.448;2023-03-19T01:11:31;3.57;;;2.80;;
8978;SDS011;4524;51.364;5.448;2023-03-19T01:13:59;3.60;;;2.70;;
8978;SDS011;4524;51.364;5.448;2023-03-19T01:16:27;4.33;;;2.87;;
8978;SDS011;4524;51.364;5.448;2023-03-19T01:18:55;4.37;;;2.80;;
8978;SDS011;4524;51.364;5.448;2023-03-19T01:21:25;3.40;;;3.10;;
8978;SDS011;4524;51.364;5.448;2023-03-19T01:23:56;3.43;;;3.13;;
8978;SDS011;4524;51.364;5.448;2023-03-19T01:26:25;3.57;;;3.10;;
8978;SDS011;4524;51.364;5.448;2023-03-19T01:28:58;3.27;;;2.73;;
8978;SDS011;4524;51.364;5.448;2023-03-19T01:31:27;4.63;;;3.50;;
8978;SDS011;4524;51.364;5.448;2023-03-19T01:34:15;4.40;;;3.20;;
8978;SDS011;4524;51.364;5.448;2023-03-19T01:36:49;3.93;;;3.23;;
8978;SDS011;4524;51.364;5.448;2023-03-19T01:39:24;3.30;;;3.00;;
8978;SDS011;4524;51.364;5.448;2023-03-19T01:41:53;3.27;;;2.97;;
8978;SDS011;4524;51.364;5.448;2023-03-19T01:44:44;4.50;;;3.30;;
8978;SDS011;4524;51.364;5.448;2023-03-19T01:47:23;4.20;;;3.03;;
8978;SDS011;4524;51.364;5.448;2023-03-19T01:50:20;5.17;;;3.77;;
8978;SDS011;4524;51.364;5.448;2023-03-19T01:53:11;4.30;;;3.30;;
8978;SDS011;4524;51.364;5.448;2023-03-19T01:55:46;5.07;;;3.37;;
8978;SDS011;4524;51.364;5.448;2023-03-19T01:58:29;3.40;;;3.10;;
8978;SDS011;4524;51.364;5.448;2023-03-19T02:01:06;3.37;;;2.97;;
8978;SDS011;4524;51.364;5.448;2023-03-19T02:03:39;3.43;;;2.90;;
8978;SDS011;4524;51.364;5.448;2023-03-19T02:06:16;4.60;;;3.20;;
8978;SDS011;4524;51.364;5.448;2023-03-19T02:08:49;3.37;;;3.07;;
8978;SDS011;4524;51.364;5.448;2023-03-19T02:11:18;4.07;;;3.40;;
8978;SDS011;4524;51.364;5.448;2023-03-19T02:13:47;4.17;;;3.77;;
8978;SDS011;4524;51.364;5.448;2023-03-19T02:16:15;3.97;;;3.60;;
8978;SDS011;4524;51.364;5.448;2023-03-19T02:18:45;4.47;;;3.67;;
8978;SDS011;4524;51.364;5.448;2023-03-19T02:21:15;3.70;;;3.40;;
8978;SDS011;4524;51.364;5.448;2023-03-19T02:23:46;4.80;;;3.80;;
8978;SDS011;4524;51.364;5.448;2023-03-19T02:26:34;4.47;;;3.90;;
8978;SDS011;4524;51.364;5.448;2023-03-19T02:29:03;4.60;;;3.77;;
8978;SDS011;4524;51.364;5.448;2023-03-19T02:31:33;5.00;;;4.17;;
8978;SDS011;4524;51.364;5.448;2023-03-19T02:34:03;4.13;;;3.40;;
8978;SDS011;4524;51.364;5.448;2023-03-19T02:36:34;4.80;;;4.10;;
8978;SDS011;4524;51.364;5.448;2023-03-19T02:39:06;4.20;;;3.53;;
8978;SDS011;4524;51.364;5.448;2023-03-19T02:41:47;5.23;;;3.80;;
8978;SDS011;4524;51.364;5.448;2023-03-19T02:44:17;5.00;;;3.83;;
8978;SDS011;4524;51.364;5.448;2023-03-19T02:46:48;4.50;;;3.80;;
8978;SDS011;4524;51.364;5.448;2023-03-19T02:49:16;5.93;;;4.03;;
8978;SDS011;4524;51.364;5.448;2023-03-19T02:51:46;4.77;;;3.93;;
8978;SDS011;4524;51.364;5.448;2023-03-19T02:54:14;4.50;;;3.80;;
8978;SDS011;4524;51.364;5.448;2023-03-19T02:56:42;5.20;;;4.45;;
8978;SDS011;4524;51.364;5.448;2023-03-19T02:59:12;6.10;;;4.23;;
8978;SDS011;4524;51.364;5.448;2023-03-19T03:01:40;5.47;;;3.97;;
8978;SDS011;4524;51.364;5.448;2023-03-19T03:04:08;5.17;;;4.10;;
8978;SDS011;4524;51.364;5.448;2023-03-19T03:06:37;4.70;;;4.30;;
8978;SDS011;4524;51.364;5.448;2023-03-19T03:09:05;6.57;;;4.00;;
8978;SDS011;4524;51.364;5.448;2023-03-19T03:11:33;8.23;;;4.60;;
8978;SDS011;4524;51.364;5.448;2023-03-19T03:14:01;5.33;;;4.40;;
8978;SDS011;4524;51.364;5.448;2023-03-19T03:16:30;6.17;;;3.97;;
8978;SDS011;4524;51.364;5.448;2023-03-19T03:18:58;6.33;;;4.00;;
8978;SDS011;4524;51.364;5.448;2023-03-19T03:21:27;5.27;;;4.10;;
8978;SDS011;4524;51.364;5.448;2023-03-19T03:23:55;4.80;;;4.37;;
8978;SDS011;4524;51.364;5.448;2023-03-19T03:26:23;5.13;;;4.63;;
8978;SDS011;4524;51.364;5.448;2023-03-19T03:28:52;5.13;;;4.20;;
8978;SDS011;4524;51.364;5.448;2023-03-19T03:31:20;4.80;;;4.20;;
8978;SDS011;4524;51.364;5.448;2023-03-19T03:33:50;5.83;;;4.60;;
8978;SDS011;4524;51.364;5.448;2023-03-19T03:36:18;5.97;;;4.00;;
8978;SDS011;4524;51.364;5.448;2023-03-19T03:38:46;5.67;;;4.83;;
8978;SDS011;4524;51.364;5.448;2023-03-19T03:41:14;5.70;;;4.70;;
8978;SDS011;4524;51.364;5.448;2023-03-19T03:43:43;4.87;;;4.13;;
8978;SDS011;4524;51.364;5.448;2023-03-19T03:46:11;6.63;;;4.63;;
8978;SDS011;4524;51.364;5.448;2023-03-19T03:48:40;5.83;;;5.00;;
8978;SDS011;4524;51.364;5.448;2023-03-19T03:51:09;5.27;;;4.60;;
8978;SDS011;4524;51.364;5.448;2023-03-19T03:53:37;5.43;;;4.30;;
8978;SDS011;4524;51.364;5.448;2023-03-19T03:56:06;5.73;;;4.90;;
8978;SDS011;4524;51.364;5.448;2023-03-19T03:58:34;6.37;;;5.30;;
8978;SDS011;4524;51.364;5.448;2023-03-19T04:01:03;5.30;;;4.80;;
8978;SDS011;4524;51.364;5.448;2023-03-19T04:03:31;5.50;;;4.60;;
8978;SDS011;4524;51.364;5.448;2023-03-19T04:05:59;5.93;;;5.17;;
8978;SDS011;4524;51.364;5.448;2023-03-19T04:08:29;6.43;;;5.10;;
8978;SDS011;4524;51.364;5.448;2023-03-19T04:10:57;6.13;;;5.07;;
8978;SDS011;4524;51.364;5.448;2023-03-19T04:13:25;6.23;;;4.70;;
8978;SDS011;4524;51.364;5.448;2023-03-19T04:15:54;4.90;;;4.50;;
8978;SDS011;4524;51.364;5.448;2023-03-19T04:18:23;5.77;;;5.10;;
8978;SDS011;4524;51.364;5.448;2023-03-19T04:20:51;5.63;;;4.87;;
8978;SDS011;4524;51.364;5.448;2023-03-19T04:23:19;5.83;;;5.03;;
8978;SDS011;4524;51.364;5.448;2023-03-19T04:25:48;5.87;;;5.37;;
8978;SDS011;4524;51.364;5.448;2023-03-19T04:28:16;5.67;;;4.83;;
8978;SDS011;4524;51.364;5.448;2023-03-19T04:30:44;5.90;;;5.30;;
8978;SDS011;4524;51.364;5.448;2023-03-19T04:33:12;6.30;;;5.70;;
8978;SDS011;4524;51.364;5.448;2023-03-19T04:35:40;6.03;;;5.43;;
8978;SDS011;4524;51.364;5.448;2023-03-19T04:38:08;6.20;;;5.60;;
8978;SDS011;4524;51.364;5.448;2023-03-19T04:40:36;6.90;;;5.90;;
8978;SDS011;4524;51.364;5.448;2023-03-19T04:43:07;7.97;;;5.30;;
8978;SDS011;4524;51.364;5.448;2023-03-19T04:45:36;6.47;;;5.73;;
8978;SDS011;4524;51.364;5.448;2023-03-19T04:48:04;8.60;;;5.50;;
8978;SDS011;4524;51.364;5.448;2023-03-19T04:50:34;6.87;;;5.77;;
8978;SDS011;4524;51.364;5.448;2023-03-19T04:53:03;6.13;;;5.53;;
8978;SDS011;4524;51.364;5.448;2023-03-19T04:55:31;7.20;;;6.50;;
8978;SDS011;4524;51.364;5.448;2023-03-19T04:58:04;6.80;;;5.80;;
8978;SDS011;4524;51.364;5.448;2023-03-19T05:00:36;7.63;;;6.50;;
8978;SDS011;4524;51.364;5.448;2023-03-19T05:03:05;8.60;;;6.57;;
8978;SDS011;4524;51.364;5.448;2023-03-19T05:05:34;6.73;;;6.10;;
8978;SDS011;4524;51.364;5.448;2023-03-19T05:08:05;7.63;;;6.00;;
8978;SDS011;4524;51.364;5.448;2023-03-19T05:10:35;8.10;;;6.60;;
8978;SDS011;4524;51.364;5.448;2023-03-19T05:13:04;6.33;;;5.70;;
8978;SDS011;4524;51.364;5.448;2023-03-19T05:15:38;5.70;;;5.10;;
8978;SDS011;4524;51.364;5.448;2023-03-19T05:18:09;6.87;;;6.03;;
8978;SDS011;4524;51.364;5.448;2023-03-19T05:20:41;6.27;;;5.67;;
8978;SDS011;4524;51.364;5.448;2023-03-19T05:23:20;7.83;;;6.60;;
8978;SDS011;4524;51.364;5.448;2023-03-19T05:25:56;7.27;;;6.47;;
8978;SDS011;4524;51.364;5.448;2023-03-19T05:28:45;7.70;;;6.80;;
8978;SDS011;4524;51.364;5.448;2023-03-19T05:31:18;7.50;;;6.70;;
8978;SDS011;4524;51.364;5.448;2023-03-19T05:33:49;7.67;;;6.50;;
8978;SDS011;4524;51.364;5.448;2023-03-19T05:36:17;7.70;;;6.90;;
8978;SDS011;4524;51.364;5.448;2023-03-19T05:38:55;7.07;;;6.37;;
8978;SDS011;4524;51.364;5.448;2023-03-19T05:41:29;8.80;;;7.30;;
8978;SDS011;4524;51.364;5.448;2023-03-19T05:44:01;8.53;;;7.63;;
8978;SDS011;4524;51.364;5.448;2023-03-19T05:46:57;8.23;;;7.43;;
8978;SDS011;4524;51.364;5.448;2023-03-19T05:49:28;10.67;;;7.80;;
8978;SDS011;4524;51.364;5.448;2023-03-19T05:51:56;9.30;;;7.90;;
8978;SDS011;4524;51.364;5.448;2023-03-19T05:54:24;8.90;;;7.93;;
8978;SDS011;4524;51.364;5.448;2023-03-19T05:57:05;8.67;;;7.87;;
8978;SDS011;4524;51.364;5.448;2023-03-19T05:59:39;8.87;;;7.97;;
8978;SDS011;4524;51.364;5.448;2023-03-19T06:02:25;9.07;;;8.13;;
8978;SDS011;4524;51.364;5.448;2023-03-19T06:05:08;9.73;;;8.73;;
8978;SDS011;4524;51.364;5.448;2023-03-19T06:07:37;8.93;;;7.83;;
8978;SDS011;4524;51.364;5.448;2023-03-19T06:10:11;10.20;;;8.93;;
8978;SDS011;4524;51.364;5.448;2023-03-19T06:12:39;13.07;;;9.87;;
8978;SDS011;4524;51.364;5.448;2023-03-19T06:15:20;11.33;;;9.33;;
8978;SDS011;4524;51.364;5.448;2023-03-19T06:18:11;9.10;;;8.13;;
8978;SDS011;4524;51.364;5.448;2023-03-19T06:20:39;10.03;;;8.80;;
8978;SDS011;4524;51.364;5.448;2023-03-19T06:23:07;9.60;;;8.70;;
8978;SDS011;4524;51.364;5.448;2023-03-19T06:25:35;10.60;;;9.50;;
8978;SDS011;4524;51.364;5.448;2023-03-19T06:28:04;10.40;;;9.30;;
8978;SDS011;4524;51.364;5.448;2023-03-19T06:30:37;10.93;;;8.67;;
8978;SDS011;4524;51.364;5.448;2023-03-19T06:33:26;10.33;;;9.23;;
8978;SDS011;4524;51.364;5.448;2023-03-19T06:35:57;11.57;;;9.63;;
8978;SDS011;4524;51.364;5.448;2023-03-19T06:38:28;10.50;;;9.40;;
8978;SDS011;4524;51.364;5.448;2023-03-19T06:40:56;11.10;;;9.90;;
8978;SDS011;4524;51.364;5.448;2023-03-19T06:43:24;10.53;;;9.50;;
8978;SDS011;4524;51.364;5.448;2023-03-19T06:45:52;12.23;;;10.63;;
8978;SDS011;4524;51.364;5.448;2023-03-19T06:48:20;11.90;;;10.43;;
8978;SDS011;4524;51.364;5.448;2023-03-19T06:50:49;12.90;;;11.07;;
8978;SDS011;4524;51.364;5.448;2023-03-19T06:53:17;12.63;;;10.90;;
8978;SDS011;4524;51.364;5.448;2023-03-19T06:55:45;10.07;;;9.07;;
8978;SDS011;4524;51.364;5.448;2023-03-19T06:58:13;12.10;;;10.47;;
8978;SDS011;4524;51.364;5.448;2023-03-19T07:00:41;12.30;;;10.23;;
8978;SDS011;4524;51.364;5.448;2023-03-19T07:03:09;11.83;;;10.30;;
8978;SDS011;4524;51.364;5.448;2023-03-19T07:05:37;12.17;;;10.67;;
8978;SDS011;4524;51.364;5.448;2023-03-19T07:08:06;10.87;;;9.77;;
8978;SDS011;4524;51.364;5.448;2023-03-19T07:10:37;12.90;;;11.30;;
8978;SDS011;4524;51.364;5.448;2023-03-19T07:13:05;14.82;;;13.32;;
8978;SDS011;4524;51.364;5.448;2023-03-19T07:15:33;14.63;;;12.50;;
8978;SDS011;4524;51.364;5.448;2023-03-19T07:18:01;12.40;;;11.13;;
8978;SDS011;4524;51.364;5.448;2023-03-19T07:20:30;11.67;;;10.43;;
8978;SDS011;4524;51.364;5.448;2023-03-19T07:22:58;12.03;;;10.73;;
8978;SDS011;4524;51.364;5.448;2023-03-19T07:25:27;11.90;;;10.70;;
8978;SDS011;4524;51.364;5.448;2023-03-19T07:27:56;13.03;;;11.10;;
8978;SDS011;4524;51.364;5.448;2023-03-19T07:30:23;10.80;;;4.50;;
8978;SDS011;4524;51.364;5.448;2023-03-19T07:32:51;7.87;;;5.67;;
8978;SDS011;4524;51.364;5.448;2023-03-19T07:35:19;8.00;;;4.90;;
8978;SDS011;4524;51.364;5.448;2023-03-19T07:37:47;7.43;;;4.30;;
8978;SDS011;4524;51.364;5.448;2023-03-19T07:40:16;9.70;;;8.70;;
8978;SDS011;4524;51.364;5.448;2023-03-19T07:42:45;10.03;;;8.53;;
8978;SDS011;4524;51.364;5.448;2023-03-19T07:45:13;8.93;;;6.43;;
8978;SDS011;4524;51.364;5.448;2023-03-19T07:47:41;5.57;;;4.77;;
8978;SDS011;4524;51.364;5.448;2023-03-19T07:50:09;7.30;;;5.70;;
8978;SDS011;4524;51.364;5.448;2023-03-19T07:52:37;9.63;;;8.13;;
8978;SDS011;4524;51.364;5.448;2023-03-19T07:55:06;9.27;;;8.17;;
8978;SDS011;4524;51.364;5.448;2023-03-19T07:57:34;5.57;;;4.30;;
8978;SDS011;4524;51.364;5.448;2023-03-19T08:00:04;5.03;;;4.30;;
8978;SDS011;4524;51.364;5.448;2023-03-19T08:02:38;5.50;;;4.50;;
8978;SDS011;4524;51.364;5.448;2023-03-19T08:05:08;6.63;;;4.73;;
8978;SDS011;4524;51.364;5.448;2023-03-19T08:07:36;6.97;;;4.60;;
8978;SDS011;4524;51.364;5.448;2023-03-19T08:10:05;4.17;;;3.63;;
8978;SDS011;4524;51.364;5.448;2023-03-19T08:12:34;5.93;;;4.40;;
8978;SDS011;4524;51.364;5.448;2023-03-19T08:15:08;10.80;;;5.13;;
8978;SDS011;4524;51.364;5.448;2023-03-19T08:17:37;6.43;;;4.00;;
8978;SDS011;4524;51.364;5.448;2023-03-19T08:20:07;6.23;;;3.70;;
8978;SDS011;4524;51.364;5.448;2023-03-19T08:22:37;11.30;;;4.83;;
8978;SDS011;4524;51.364;5.448;2023-03-19T08:25:06;7.70;;;5.57;;
8978;SDS011;4524;51.364;5.448;2023-03-19T08:27:35;5.20;;;3.40;;
8978;SDS011;4524;51.364;5.448;2023-03-19T08:30:03;4.37;;;3.20;;
8978;SDS011;4524;51.364;5.448;2023-03-19T08:32:33;7.50;;;4.90;;
8978;SDS011;4524;51.364;5.448;2023-03-19T08:35:02;7.00;;;3.60;;
8978;SDS011;4524;51.364;5.448;2023-03-19T08:37:31;5.63;;;2.97;;
8978;SDS011;4524;51.364;5.448;2023-03-19T08:39:59;5.23;;;3.10;;
8978;SDS011;4524;51.364;5.448;2023-03-19T08:42:27;6.93;;;3.47;;
8978;SDS011;4524;51.364;5.448;2023-03-19T08:44:55;9.77;;;5.33;;
8978;SDS011;4524;51.364;5.448;2023-03-19T08:47:23;7.00;;;3.63;;
8978;SDS011;4524;51.364;5.448;2023-03-19T08:49:52;6.83;;;3.30;;
8978;SDS011;4524;51.364;5.448;2023-03-19T08:52:21;9.00;;;3.33;;
8978;SDS011;4524;51.364;5.448;2023-03-19T08:54:49;7.43;;;3.87;;
8978;SDS011;4524;51.364;5.448;2023-03-19T08:57:18;4.13;;;2.73;;
8978;SDS011;4524;51.364;5.448;2023-03-19T08:59:46;9.63;;;3.63;;
8978;SDS011;4524;51.364;5.448;2023-03-19T09:02:14;6.93;;;3.00;;
8978;SDS011;4524;51.364;5.448;2023-03-19T09:04:42;9.83;;;4.40;;
8978;SDS011;4524;51.364;5.448;2023-03-19T09:07:12;7.00;;;3.27;;
8978;SDS011;4524;51.364;5.448;2023-03-19T09:09:41;8.37;;;3.77;;
8978;SDS011;4524;51.364;5.448;2023-03-19T09:12:10;6.03;;;2.70;;
8978;SDS011;4524;51.364;5.448;2023-03-19T09:14:40;6.40;;;2.80;;
8978;SDS011;4524;51.364;5.448;2023-03-19T09:17:08;8.10;;;3.13;;
8978;SDS011;4524;51.364;5.448;2023-03-19T09:19:38;8.27;;;2.93;;
8978;SDS011;4524;51.364;5.448;2023-03-19T09:22:06;12.43;;;2.77;;
8978;SDS011;4524;51.364;5.448;2023-03-19T09:24:36;6.20;;;2.87;;
8978;SDS011;4524;51.364;5.448;2023-03-19T09:27:06;6.00;;;2.50;;
8978;SDS011;4524;51.364;5.448;2023-03-19T09:29:34;9.33;;;2.90;;
8978;SDS011;4524;51.364;5.448;2023-03-19T09:32:02;9.83;;;2.87;;
8978;SDS011;4524;51.364;5.448;2023-03-19T09:34:31;6.43;;;2.70;;
8978;SDS011;4524;51.364;5.448;2023-03-19T09:36:59;8.00;;;2.90;;
8978;SDS011;4524;51.364;5.448;2023-03-19T09:39:27;7.63;;;2.40;;
8978;SDS011;4524;51.364;5.448;2023-03-19T09:41:59;7.67;;;2.40;;
8978;SDS011;4524;51.364;5.448;2023-03-19T09:44:35;11.27;;;3.20;;
8978;SDS011;4524;51.364;5.448;2023-03-19T09:47:08;8.30;;;2.30;;
8978;SDS011;4524;51.364;5.448;2023-03-19T09:49:51;6.70;;;2.43;;
8978;SDS011;4524;51.364;5.448;2023-03-19T09:52:37;7.00;;;2.57;;
8978;SDS011;4524;51.364;5.448;2023-03-19T09:55:13;9.63;;;2.60;;
8978;SDS011;4524;51.364;5.448;2023-03-19T09:57:54;8.93;;;2.60;;
8978;SDS011;4524;51.364;5.448;2023-03-19T10:00:24;9.10;;;2.20;;
8978;SDS011;4524;51.364;5.448;2023-03-19T10:02:55;5.73;;;2.37;;
8978;SDS011;4524;51.364;5.448;2023-03-19T10:05:31;6.63;;;2.13;;
8978;SDS011;4524;51.364;5.448;2023-03-19T10:08:15;7.97;;;2.87;;
8978;SDS011;4524;51.364;5.448;2023-03-19T10:10:58;6.53;;;2.17;;
8978;SDS011;4524;51.364;5.448;2023-03-19T10:13:41;7.43;;;2.43;;
8978;SDS011;4524;51.364;5.448;2023-03-19T10:16:18;9.53;;;2.60;;
8978;SDS011;4524;51.364;5.448;2023-03-19T10:18:49;4.70;;;2.10;;
8978;SDS011;4524;51.364;5.448;2023-03-19T10:21:19;7.57;;;2.40;;
8978;SDS011;4524;51.364;5.448;2023-03-19T10:23:53;9.47;;;2.90;;
8978;SDS011;4524;51.364;5.448;2023-03-19T10:26:25;7.10;;;2.20;;
8978;SDS011;4524;51.364;5.448;2023-03-19T10:28:58;7.37;;;2.30;;
8978;SDS011;4524;51.364;5.448;2023-03-19T10:31:43;4.27;;;1.93;;
8978;SDS011;4524;51.364;5.448;2023-03-19T10:34:20;10.20;;;2.30;;
8978;SDS011;4524;51.364;5.448;2023-03-19T10:36:57;6.47;;;2.20;;
8978;SDS011;4524;51.364;5.448;2023-03-19T10:39:26;6.93;;;2.37;;
8978;SDS011;4524;51.364;5.448;2023-03-19T10:41:57;9.10;;;2.10;;
8978;SDS011;4524;51.364;5.448;2023-03-19T10:44:35;5.80;;;2.20;;
8978;SDS011;4524;51.364;5.448;2023-03-19T10:47:10;7.13;;;2.47;;
8978;SDS011;4524;51.364;5.448;2023-03-19T10:49:40;6.03;;;2.10;;
8978;SDS011;4524;51.364;5.448;2023-03-19T10:52:15;7.67;;;1.80;;
8978;SDS011;4524;51.364;5.448;2023-03-19T10:54:47;6.00;;;1.73;;
8978;SDS011;4524;51.364;5.448;2023-03-19T10:57:21;7.17;;;2.17;;
8978;SDS011;4524;51.364;5.448;2023-03-19T10:59:53;3.93;;;1.70;;
8978;SDS011;4524;51.364;5.448;2023-03-19T11:02:22;5.63;;;2.23;;
8978;SDS011;4524;51.364;5.448;2023-03-19T11:05:05;6.00;;;2.07;;
8978;SDS011;4524;51.364;5.448;2023-03-19T11:07:35;6.23;;;2.00;;
8978;SDS011;4524;51.364;5.448;2023-03-19T11:10:04;5.60;;;2.00;;
8978;SDS011;4524;51.364;5.448;2023-03-19T11:12:38;7.53;;;1.87;;
8978;SDS011;4524;51.364;5.448;2023-03-19T11:15:13;9.70;;;2.07;;
8978;SDS011;4524;51.364;5.448;2023-03-19T11:17:47;5.87;;;1.97;;
8978;SDS011;4524;51.364;5.448;2023-03-19T11:20:20;5.43;;;1.70;;
8978;SDS011;4524;51.364;5.448;2023-03-19T11:22:52;6.43;;;2.10;;
8978;SDS011;4524;51.364;5.448;2023-03-19T11:25:24;5.20;;;1.67;;
8978;SDS011;4524;51.364;5.448;2023-03-19T11:27:58;5.90;;;1.50;;
8978;SDS011;4524;51.364;5.448;2023-03-19T11:30:32;4.93;;;1.57;;
8978;SDS011;4524;51.364;5.448;2023-03-19T11:33:11;5.10;;;1.77;;
8978;SDS011;4524;51.364;5.448;2023-03-19T11:36:04;6.23;;;2.03;;
8978;SDS011;4524;51.364;5.448;2023-03-19T11:38:42;5.23;;;2.50;;
8978;SDS011;4524;51.364;5.448;2023-03-19T11:41:23;5.73;;;2.20;;
8978;SDS011;4524;51.364;5.448;2023-03-19T11:44:00;6.30;;;2.47;;
8978;SDS011;4524;51.364;5.448;2023-03-19T11:46:40;4.90;;;1.90;;
8978;SDS011;4524;51.364;5.448;2023-03-19T11:49:16;5.40;;;2.30;;
8978;SDS011;4524;51.364;5.448;2023-03-19T11:52:07;5.80;;;2.03;;
8978;SDS011;4524;51.364;5.448;2023-03-19T11:54:43;5.07;;;2.13;;
8978;SDS011;4524;51.364;5.448;2023-03-19T11:57:21;6.57;;;2.00;;
8978;SDS011;4524;51.364;5.448;2023-03-19T12:00:00;6.47;;;2.40;;
8978;SDS011;4524;51.364;5.448;2023-03-19T12:02:44;6.60;;;2.20;;
8978;SDS011;4524;51.364;5.448;2023-03-19T12:05:36;4.07;;;2.10;;
8978;SDS011;4524;51.364;5.448;2023-03-19T12:08:16;3.77;;;2.10;;
8978;SDS011;4524;51.364;5.448;2023-03-19T12:10:53;4.47;;;2.17;;
8978;SDS011;4524;51.364;5.448;2023-03-19T12:13:30;5.80;;;2.37;;
8978;SDS011;4524;51.364;5.448;2023-03-19T12:16:07;5.10;;;2.73;;
8978;SDS011;4524;51.364;5.448;2023-03-19T12:18:47;7.47;;;2.97;;
8978;SDS011;4524;51.364;5.448;2023-03-19T12:21:39;5.30;;;3.17;;
8978;SDS011;4524;51.364;5.448;2023-03-19T12:24:19;5.43;;;2.10;;
8978;SDS011;4524;51.364;5.448;2023-03-19T12:27:00;4.03;;;2.07;;
8978;SDS011;4524;51.364;5.448;2023-03-19T12:29:40;3.13;;;1.80;;
8978;SDS011;4524;51.364;5.448;2023-03-19T12:32:15;5.10;;;1.90;;
8978;SDS011;4524;51.364;5.448;2023-03-19T12:35:00;4.57;;;2.90;;
8978;SDS011;4524;51.364;5.448;2023-03-19T12:37:32;6.83;;;4.13;;
8978;SDS011;4524;51.364;5.448;2023-03-19T12:40:11;6.87;;;3.93;;
8978;SDS011;4524;51.364;5.448;2023-03-19T12:42:48;4.83;;;2.93;;
8978;SDS011;4524;51.364;5.448;2023-03-19T12:45:22;4.93;;;3.07;;
8978;SDS011;4524;51.364;5.448;2023-03-19T12:47:56;4.43;;;2.93;;
8978;SDS011;4524;51.364;5.448;2023-03-19T12:50:28;4.57;;;3.10;;
8978;SDS011;4524;51.364;5.448;2023-03-19T12:52:58;4.87;;;2.33;;
8978;SDS011;4524;51.364;5.448;2023-03-19T12:55:31;5.10;;;2.50;;
8978;SDS011;4524;51.364;5.448;2023-03-19T12:58:05;6.17;;;2.43;;
8978;SDS011;4524;51.364;5.448;2023-03-19T13:00:39;3.50;;;2.40;;
8978;SDS011;4524;51.364;5.448;2023-03-19T13:03:16;6.43;;;2.80;;
8978;SDS011;4524;51.364;5.448;2023-03-19T13:05:51;4.00;;;2.53;;
8978;SDS011;4524;51.364;5.448;2023-03-19T13:08:26;4.33;;;2.77;;
8978;SDS011;4524;51.364;5.448;2023-03-19T13:11:00;7.57;;;4.37;;
8978;SDS011;4524;51.364;5.448;2023-03-19T13:13:35;6.40;;;4.40;;
8978;SDS011;4524;51.364;5.448;2023-03-19T13:16:09;4.37;;;3.23;;
8978;SDS011;4524;51.364;5.448;2023-03-19T13:18:49;5.20;;;3.70;;
8978;SDS011;4524;51.364;5.448;2023-03-19T13:21:27;8.23;;;5.47;;
8978;SDS011;4524;51.364;5.448;2023-03-19T13:24:01;5.73;;;5.13;;
8978;SDS011;4524;51.364;5.448;2023-03-19T13:26:35;6.77;;;5.73;;
8978;SDS011;4524;51.364;5.448;2023-03-19T13:29:07;7.27;;;5.97;;
8978;SDS011;4524;51.364;5.448;2023-03-19T13:31:42;9.67;;;6.00;;
8978;SDS011;4524;51.364;5.448;2023-03-19T13:34:18;9.87;;;7.33;;
8978;SDS011;4524;51.364;5.448;2023-03-19T13:36:53;8.73;;;6.80;;
8978;SDS011;4524;51.364;5.448;2023-03-19T13:39:28;7.73;;;6.10;;
8978;SDS011;4524;51.364;5.448;2023-03-19T13:44:51;8.47;;;7.50;;
8978;SDS011;4524;51.364;5.448;2023-03-19T13:47:38;9.43;;;8.43;;
8978;SDS011;4524;51.364;5.448;2023-03-19T13:50:21;7.80;;;6.93;;
8978;SDS011;4524;51.364;5.448;2023-03-19T13:52:54;8.47;;;7.60;;
8978;SDS011;4524;51.364;5.448;2023-03-19T13:55:49;10.37;;;9.27;;
8978;SDS011;4524;51.364;5.448;2023-03-19T13:58:21;11.73;;;8.83;;
8978;SDS011;4524;51.364;5.448;2023-03-19T14:01:35;11.07;;;7.93;;
8978;SDS011;4524;51.364;5.448;2023-03-19T14:04:05;10.53;;;9.43;;
8978;SDS011;4524;51.364;5.448;2023-03-19T14:06:46;14.63;;;13.13;;
8978;SDS011;4524;51.364;5.448;2023-03-19T14:09:30;12.13;;;11.07;;
8978;SDS011;4524;51.364;5.448;2023-03-19T14:12:09;14.23;;;12.90;;
8978;SDS011;4524;51.364;5.448;2023-03-19T14:14:49;13.97;;;11.07;;
8978;SDS011;4524;51.364;5.448;2023-03-19T14:17:20;6.90;;;6.20;;
8978;SDS011;4524;51.364;5.448;2023-03-19T14:19:51;10.87;;;7.67;;
8978;SDS011;4524;51.364;5.448;2023-03-19T14:22:22;9.40;;;7.20;;
8978;SDS011;4524;51.364;5.448;2023-03-19T14:25:12;8.30;;;7.10;;
8978;SDS011;4524;51.364;5.448;2023-03-19T14:27:43;7.60;;;6.50;;
8978;SDS011;4524;51.364;5.448;2023-03-19T14:30:19;7.83;;;6.03;;
8978;SDS011;4524;51.364;5.448;2023-03-19T14:32:56;6.70;;;5.40;;
8978;SDS011;4524;51.364;5.448;2023-03-19T14:35:30;8.60;;;6.53;;
8978;SDS011;4524;51.364;5.448;2023-03-19T14:38:01;7.03;;;6.33;;
8978;SDS011;4524;51.364;5.448;2023-03-19T14:40:41;7.60;;;6.77;;
8978;SDS011;4524;51.364;5.448;2023-03-19T14:43:13;9.97;;;7.57;;
8978;SDS011;4524;51.364;5.448;2023-03-19T14:45:48;10.80;;;8.40;;
8978;SDS011;4524;51.364;5.448;2023-03-19T14:48:33;11.33;;;9.83;;
8978;SDS011;4524;51.364;5.448;2023-03-19T14:51:19;13.03;;;10.70;;
8978;SDS011;4524;51.364;5.448;2023-03-19T14:54:12;12.07;;;10.63;;
8978;SDS011;4524;51.364;5.448;2023-03-19T14:56:53;13.27;;;11.87;;
8978;SDS011;4524;51.364;5.448;2023-03-19T14:59:22;14.27;;;12.77;;
8978;SDS011;4524;51.364;5.448;2023-03-19T15:01:51;9.77;;;8.77;;
8978;SDS011;4524;51.364;5.448;2023-03-19T15:04:20;14.70;;;13.17;;
8978;SDS011;4524;51.364;5.448;2023-03-19T15:06:51;14.43;;;12.73;;
8978;SDS011;4524;51.364;5.448;2023-03-19T15:09:23;15.27;;;13.67;;
8978;SDS011;4524;51.364;5.448;2023-03-19T15:12:12;13.10;;;11.80;;
8978;SDS011;4524;51.364;5.448;2023-03-19T15:15:07;15.03;;;13.27;;
8978;SDS011;4524;51.364;5.448;2023-03-19T15:17:46;15.57;;;12.37;;
8978;SDS011;4524;51.364;5.448;2023-03-19T15:20:30;13.33;;;11.17;;
8978;SDS011;4524;51.364;5.448;2023-03-19T15:23:04;12.20;;;10.30;;
8978;SDS011;4524;51.364;5.448;2023-03-19T15:25:51;8.53;;;7.40;;
8978;SDS011;4524;51.364;5.448;2023-03-19T15:28:23;9.30;;;8.20;;
8978;SDS011;4524;51.364;5.448;2023-03-19T15:30:54;9.53;;;8.13;;
8978;SDS011;4524;51.364;5.448;2023-03-19T15:33:34;10.23;;;9.10;;
8978;SDS011;4524;51.364;5.448;2023-03-19T15:36:11;10.53;;;9.47;;
8978;SDS011;4524;51.364;5.448;2023-03-19T15:38:44;11.83;;;10.17;;
8978;SDS011;4524;51.364;5.448;2023-03-19T15:41:15;11.30;;;10.13;;
8978;SDS011;4524;51.364;5.448;2023-03-19T15:43:46;14.83;;;12.20;;
8978;SDS011;4524;51.364;5.448;2023-03-19T15:46:15;16.23;;;13.33;;
8978;SDS011;4524;51.364;5.448;2023-03-19T15:48:47;13.23;;;11.83;;
8978;SDS011;4524;51.364;5.448;2023-03-19T15:51:18;14.07;;;12.13;;